createdAt,value
2023-02-17T00:01:21.710Z,100222.72
2023-02-17T00:03:50.181Z,100215.06
2023-02-17T00:06:21.182Z,100230.34
2023-02-17T00:08:49.054Z,100230.38
2023-02-17T00:11:16.960Z,100225.25
2023-02-17T00:13:44.232Z,100230.34
2023-02-17T00:16:23.446Z,100209.19
2023-02-17T00:19:00.280Z,100221.91
2023-02-17T00:21:31.961Z,100217.66
2023-02-17T00:23:59.426Z,100206.63
2023-02-17T00:26:26.253Z,100205.78
2023-02-17T00:28:53.258Z,100204.09
2023-02-17T00:31:23.437Z,100208.34
2023-02-17T00:33:50.528Z,100197.31
2023-02-17T00:36:20.016Z,100209.22
2023-02-17T00:38:48.741Z,100214.28
2023-02-17T00:41:18.280Z,100208.34
2023-02-17T00:43:46.357Z,100209.22
2023-02-17T00:46:13.435Z,100202.44
2023-02-17T00:48:41.535Z,100211.75
2023-02-17T00:51:09.536Z,100201.56
2023-02-17T00:53:36.696Z,100196.47
2023-02-17T00:56:04.405Z,100202.41
2023-02-17T00:58:31.385Z,100206.63
2023-02-17T01:00:58.836Z,100205.78
2023-02-17T01:03:27.217Z,100183.72
2023-02-17T01:05:55.568Z,100182.88
2023-02-17T01:08:24.372Z,100183.75
2023-02-17T01:10:52.660Z,100178.66
2023-02-17T01:13:20.140Z,100170.19
2023-02-17T01:15:51.434Z,100167.63
2023-02-17T01:18:21.662Z,100153.22
2023-02-17T01:20:48.603Z,100159.16
2023-02-17T01:23:18.734Z,100150.66
2023-02-17T01:25:49.026Z,100155.75
2023-02-17T01:28:20.676Z,100143.88
2023-02-17T01:30:49.088Z,100148.97
2023-02-17T01:33:16.096Z,100134.56
2023-02-17T01:35:43.223Z,100130.31
2023-02-17T01:38:10.054Z,100135.41
2023-02-17T01:40:36.995Z,100130.31
2023-02-17T01:43:03.875Z,100119.28
2023-02-17T01:45:45.705Z,100118.44
2023-02-17T01:48:18.572Z,100115.91
2023-02-17T01:50:54.068Z,100124.41
2023-02-17T01:53:29.532Z,100113.38
2023-02-17T01:55:57.044Z,100109.13
2023-02-17T01:58:26.972Z,100109.97
2023-02-17T02:00:59.218Z,100109.97
2023-02-17T02:03:28.278Z,100118.47
2023-02-17T02:05:55.998Z,100108.28
2023-02-17T02:08:22.827Z,100108.28
2023-02-17T02:10:49.608Z,100104.88
2023-02-17T02:13:16.651Z,100104.03
2023-02-17T02:16:25.172Z,100113.34
2023-02-17T02:19:04.652Z,100107.44
2023-02-17T02:22:13.513Z,100106.63
2023-02-17T02:25:13.783Z,100098.16
2023-02-17T02:28:22.774Z,100092.22
2023-02-17T02:31:15.891Z,100087.19
2023-02-17T02:33:59.523Z,100099.03
2023-02-17T02:36:35.243Z,100093.13
2023-02-17T02:39:15.947Z,100090.59
2023-02-17T02:41:53.311Z,100101.59
2023-02-17T02:44:21.779Z,100094.84
2023-02-17T02:47:24.416Z,100082.97
2023-02-17T02:49:51.304Z,100085.50
2023-02-17T02:52:36.197Z,100088.94
2023-02-17T02:55:31.096Z,100088.94
2023-02-17T02:58:30.481Z,100083.00
2023-02-17T03:01:06.788Z,100087.25
2023-02-17T03:04:08.464Z,100099.97
2023-02-17T03:07:01.673Z,100089.78
2023-02-17T03:09:29.924Z,100084.72
2023-02-17T03:11:58.716Z,100077.88
2023-02-17T03:14:28.368Z,100069.41
2023-02-17T03:16:55.404Z,100071.09
2023-02-17T03:19:25.500Z,100075.34
2023-02-17T03:22:28.868Z,100090.59
2023-02-17T03:24:55.586Z,100073.63
2023-02-17T03:27:22.318Z,100077.00
2023-02-17T03:29:49.196Z,100079.53
2023-02-17T03:32:16.017Z,100080.41
2023-02-17T03:34:42.764Z,100069.38
2023-02-17T03:37:09.528Z,100062.56
2023-02-17T03:39:36.952Z,100056.66
2023-02-17T03:42:03.756Z,100066.81
2023-02-17T03:44:30.592Z,100055.78
2023-02-17T03:46:57.387Z,100044.75
2023-02-17T03:49:24.193Z,100051.50
2023-02-17T03:51:51.320Z,100045.56
2023-02-17T03:54:18.049Z,100044.72
2023-02-17T03:56:44.969Z,100043.88
2023-02-17T03:59:11.707Z,100051.50
2023-02-17T04:01:38.550Z,100060.00
2023-02-17T04:04:05.475Z,100058.28
2023-02-17T04:06:32.366Z,100054.03
2023-02-17T04:08:59.136Z,100051.50
2023-02-17T04:11:26.203Z,100056.59
2023-02-17T04:13:52.972Z,100045.59
2023-02-17T04:16:19.752Z,100052.38
2023-02-17T04:18:46.514Z,100053.25
2023-02-17T04:21:13.264Z,100046.47
2023-02-17T04:23:40.130Z,100058.31
2023-02-17T04:26:09.000Z,100056.63
2023-02-17T04:28:39.850Z,100060.06
2023-02-17T04:31:06.802Z,100074.47
2023-02-17T04:33:34.500Z,100070.22
2023-02-17T04:36:01.827Z,100070.22
2023-02-17T04:38:32.049Z,100057.53
2023-02-17T04:41:00.483Z,100070.22
2023-02-17T04:43:28.117Z,100069.38
2023-02-17T04:45:55.441Z,100057.53
2023-02-17T04:48:22.894Z,100049.03
2023-02-17T04:50:49.804Z,100057.50
2023-02-17T04:53:16.994Z,100042.22
2023-02-17T04:55:44.054Z,100067.66
2023-02-17T04:58:10.994Z,100067.63
2023-02-17T05:00:38.003Z,100071.03
2023-02-17T05:03:05.142Z,100078.66
2023-02-17T05:05:32.071Z,100093.03
2023-02-17T05:07:58.827Z,100084.53
2023-02-17T05:10:25.662Z,100104.03
2023-02-17T05:12:52.574Z,100088.75
2023-02-17T05:15:20.632Z,100084.50
2023-02-17T05:17:47.362Z,100079.38
2023-02-17T05:20:14.495Z,100075.16
2023-02-17T05:22:41.392Z,100082.72
2023-02-17T05:25:08.456Z,100077.63
2023-02-17T05:27:35.383Z,100086.09
2023-02-17T05:30:02.406Z,100078.44
2023-02-17T05:32:29.243Z,100076.75
2023-02-17T05:34:55.991Z,100075.91
2023-02-17T05:37:22.821Z,100052.97
2023-02-17T05:39:49.617Z,100068.22
2023-02-17T05:42:16.432Z,100073.16
2023-02-17T05:44:43.192Z,100057.00
2023-02-17T05:47:09.976Z,100053.66
2023-02-17T05:49:36.736Z,100048.59
2023-02-17T05:52:03.734Z,100040.97
2023-02-17T05:54:30.543Z,100037.59
2023-02-17T05:56:57.298Z,100047.78
2023-02-17T05:59:24.448Z,100054.53
2023-02-17T06:01:51.203Z,100043.50
2023-02-17T06:04:17.977Z,100058.75
2023-02-17T06:06:44.814Z,100062.16
2023-02-17T06:09:11.520Z,100063.84
2023-02-17T06:11:38.582Z,100065.56
2023-02-17T06:14:05.331Z,100059.63
2023-02-17T06:16:32.114Z,100067.25
2023-02-17T06:19:00.144Z,100066.41
2023-02-17T06:21:26.863Z,100068.94
2023-02-17T06:23:53.665Z,100063.00
2023-02-17T06:26:20.526Z,100068.94
2023-02-17T06:28:47.415Z,100070.66
2023-02-17T06:31:14.492Z,100085.91
2023-02-17T06:33:41.308Z,100082.53
2023-02-17T06:36:08.584Z,100067.25
2023-02-17T06:38:35.493Z,100068.94
2023-02-17T06:41:02.319Z,100080.81
2023-02-17T06:43:29.025Z,100083.34
2023-02-17T06:45:55.902Z,100074.03
2023-02-17T06:48:22.702Z,100076.59
2023-02-17T06:50:50.290Z,100069.78
2023-02-17T06:53:17.050Z,100069.75
2023-02-17T06:55:44.855Z,100060.41
2023-02-17T06:58:11.596Z,100080.78
2023-02-17T07:00:38.730Z,100078.25
2023-02-17T07:03:05.728Z,100072.28
2023-02-17T07:05:36.388Z,100076.50
2023-02-17T07:08:04.498Z,100082.44
2023-02-17T07:10:31.958Z,100069.69
2023-02-17T07:12:58.925Z,100052.69
2023-02-17T07:27:10.892Z,100068.03
2023-02-17T07:30:41.933Z,100064.69
2023-02-17T07:54:34.676Z,100087.53
2023-02-17T07:57:22.915Z,100091.75
2023-02-17T08:00:10.822Z,100099.38
2023-02-17T08:02:52.166Z,100089.16
2023-02-17T08:05:19.133Z,100080.69
2023-02-17T08:07:46.110Z,100089.94
2023-02-17T08:10:32.222Z,100091.59
2023-02-17T08:13:18.117Z,100076.31
2023-02-17T08:16:01.024Z,100081.38
2023-02-17T08:18:38.416Z,100089.88
2023-02-17T08:21:27.613Z,100084.75
2023-02-17T08:24:00.449Z,100073.66
2023-02-17T08:26:27.312Z,100086.38
2023-02-17T08:28:54.027Z,100091.44
2023-02-17T08:31:32.968Z,100087.94
2023-02-17T08:34:07.114Z,100087.91
2023-02-17T08:36:37.296Z,100087.84
2023-02-17T08:39:10.122Z,100082.66
2023-02-17T08:41:39.292Z,100094.47
2023-02-17T08:44:14.225Z,100092.69
2023-02-17T08:46:41.418Z,100090.06
2023-02-17T08:49:08.761Z,100092.53
2023-02-17T08:51:36.740Z,100107.72
2023-02-17T08:54:06.350Z,100105.09
2023-02-17T08:56:34.326Z,100102.47
2023-02-17T08:59:01.429Z,100104.09
2023-02-17T09:01:28.426Z,100114.16
2023-02-17T09:03:57.321Z,100115.75
2023-02-17T09:06:24.753Z,100098.63
2023-02-17T09:08:51.494Z,100105.28
2023-02-17T09:11:20.797Z,100112.81
2023-02-17T09:13:47.589Z,100119.50
2023-02-17T09:16:14.707Z,100111.72
2023-02-17T09:18:41.614Z,100113.22
2023-02-17T09:21:14.086Z,100110.50
2023-02-17T09:23:41.338Z,100112.81
2023-02-17T09:26:12.693Z,100106.50
2023-02-17T09:28:40.049Z,100121.44
2023-02-17T09:31:23.627Z,100124.34
2023-02-17T09:33:51.277Z,100122.25
2023-02-17T09:36:26.498Z,100111.63
2023-02-17T09:38:54.224Z,100108.69
2023-02-17T09:41:51.796Z,100101.38
2023-02-17T09:44:35.420Z,100104.38
2023-02-17T09:47:20.590Z,100104.88
2023-02-17T09:50:12.075Z,100091.72
2023-02-17T09:53:11.156Z,100085.28
2023-02-17T09:55:47.840Z,100109.38
2023-02-17T09:58:23.844Z,100105.84
2023-02-17T10:01:04.601Z,100100.19
2023-02-17T10:04:13.258Z,100101.94
2023-02-17T10:06:46.061Z,100097.22
2023-02-17T10:09:34.370Z,100094.13
2023-02-17T10:12:14.251Z,100092.81
2023-02-17T10:15:04.244Z,100081.19
2023-02-17T10:17:40.449Z,100083.22
2023-02-17T10:20:17.584Z,100106.19
2023-02-17T10:22:52.749Z,100087.22
2023-02-17T10:25:38.122Z,100079.34
2023-02-17T10:28:22.799Z,100073.72
2023-02-17T10:31:02.178Z,100083.09
2023-02-17T10:33:56.982Z,100071.31
2023-02-17T10:36:53.516Z,100078.41
2023-02-17T10:39:49.162Z,100086.81
2023-02-17T10:42:32.889Z,100093.19
2023-02-17T10:45:51.204Z,100085.28
2023-02-17T10:48:24.646Z,100098.19
2023-02-17T10:50:53.819Z,100086.88
2023-02-17T10:53:30.079Z,100087.31
2023-02-17T10:56:14.499Z,100080.72
2023-02-17T10:58:56.098Z,100087.34
2023-02-17T11:01:26.232Z,100080.50
2023-02-17T11:04:10.650Z,100066.53
2023-02-17T11:06:48.948Z,100079.47
2023-02-17T11:09:21.732Z,100070.72
2023-02-17T11:11:59.029Z,100084.34
2023-02-17T11:14:33.109Z,100085.91
2023-02-17T11:17:12.413Z,100078.78
2023-02-17T11:19:39.201Z,100082.94
2023-02-17T11:22:38.550Z,100090.41
2023-02-17T11:25:24.251Z,100105.81
2023-02-17T11:28:04.183Z,100091.84
2023-02-17T11:30:34.832Z,100090.66
2023-02-17T11:33:16.423Z,100104.25
2023-02-17T11:35:58.678Z,100090.28
2023-02-17T11:38:32.960Z,100078.94
2023-02-17T11:41:04.470Z,100092.22
2023-02-17T11:43:33.078Z,100080.72
2023-02-17T11:46:12.750Z,100068.22
2023-02-17T11:49:04.006Z,100076.31
2023-02-17T11:51:39.559Z,100064.41
2023-02-17T11:54:45.769Z,100066.22
2023-02-17T11:57:40.700Z,100075.63
2023-02-17T12:00:20.625Z,100061.94
2023-02-17T12:03:36.453Z,100064.56
2023-02-17T12:06:20.964Z,100067.88
2023-02-17T12:08:59.349Z,100063.38
2023-02-17T12:11:37.215Z,100050.22
2023-02-17T12:14:25.242Z,100033.50
2023-02-17T12:17:21.982Z,100025.25
2023-02-17T12:20:24.046Z,100036.09
2023-02-17T12:23:24.560Z,100033.91
2023-02-17T12:26:12.663Z,100040.09
2023-02-17T12:29:02.310Z,100039.53
2023-02-17T12:32:05.947Z,100038.19
2023-02-17T12:34:46.290Z,100025.44
2023-02-17T12:37:21.729Z,100034.00
2023-02-17T12:40:06.636Z,100027.84
2023-02-17T12:42:53.728Z,100028.44
2023-02-17T12:45:27.749Z,100035.75
2023-02-17T12:48:06.707Z,100024.38
2023-02-17T12:50:43.418Z,100030.25
2023-02-17T12:53:29.085Z,100004.53
2023-02-17T12:56:04.853Z,100006.22
2023-02-17T12:58:33.375Z,100012.25
2023-02-17T13:01:18.387Z,100020.09
2023-02-17T13:03:46.123Z,100030.59
2023-02-17T13:06:36.702Z,100003.59
2023-02-17T13:09:15.155Z,100028.84
2023-02-17T13:11:41.986Z,100024.88
2023-02-17T13:14:57.245Z,100032.06
2023-02-17T13:17:35.388Z,100026.22
2023-02-17T13:20:15.107Z,100046.78
2023-02-17T13:23:28.296Z,100038.13
2023-02-17T13:26:25.997Z,100042.53
2023-02-17T13:29:07.900Z,100041.41
2023-02-17T13:31:53.834Z,100035.50
2023-02-17T13:34:42.253Z,100037.22
2023-02-17T13:37:35.321Z,100040.00
2023-02-17T13:40:24.085Z,100046.97
2023-02-17T13:43:08.970Z,100053.81
2023-02-17T13:46:04.606Z,100054.88
2023-02-17T13:48:34.858Z,100076.31
2023-02-17T13:51:07.716Z,100067.88
2023-02-17T13:53:51.539Z,100070.59
2023-02-17T13:56:28.421Z,100076.00
2023-02-17T13:59:07.094Z,100079.56
2023-02-17T14:01:40.580Z,100078.75
2023-02-17T14:04:26.943Z,100087.56
2023-02-17T14:06:57.382Z,100083.38
2023-02-17T14:09:32.180Z,100102.38
2023-02-17T14:12:03.575Z,100105.91
2023-02-17T14:14:38.155Z,100096.63
2023-02-17T14:17:26.787Z,100109.59
2023-02-17T14:19:53.563Z,100089.25
2023-02-17T14:22:35.358Z,100098.72
2023-02-17T14:25:14.092Z,100109.25
2023-02-17T14:27:47.585Z,100099.09
2023-02-17T14:30:45.837Z,100096.69
2023-02-17T14:33:16.069Z,100096.00
2023-02-17T14:35:54.650Z,100087.63
2023-02-17T14:38:37.247Z,100084.34
2023-02-17T14:41:05.863Z,100089.72
2023-02-17T14:43:33.067Z,100101.88
2023-02-17T14:45:59.952Z,100096.91
2023-02-17T14:48:28.003Z,100103.78
2023-02-17T14:50:57.169Z,100106.50
2023-02-17T14:53:29.527Z,100125.28
2023-02-17T14:56:04.649Z,100133.88
2023-02-17T14:58:32.094Z,100142.47
2023-02-17T15:01:00.285Z,100157.84
2023-02-17T15:03:27.871Z,100141.66
2023-02-17T15:05:58.619Z,100158.00
2023-02-17T15:08:41.643Z,100168.38
2023-02-17T15:11:27.885Z,100162.50
2023-02-17T15:14:24.874Z,100172.19
2023-02-17T15:16:55.125Z,100162.13
2023-02-17T15:22:44.400Z,100178.09
2023-02-17T15:25:19.176Z,100190.31
2023-02-17T15:27:46.779Z,100188.81
2023-02-17T15:30:18.161Z,100188.94
2023-02-17T15:32:46.612Z,100184.03
2023-02-17T15:35:20.039Z,100188.50
2023-02-17T15:37:53.721Z,100198.09
2023-02-17T15:40:27.448Z,100208.47
2023-02-17T15:42:57.711Z,100202.59
2023-02-17T15:45:40.611Z,100206.19
2023-02-17T15:54:12.950Z,100218.59
2023-02-17T16:00:20.228Z,100201.13
2023-02-17T16:13:20.917Z,100234.03
2023-02-17T16:37:14.146Z,100299.91
2023-02-17T16:40:02.340Z,100299.16
2023-02-17T16:42:46.254Z,100303.47
2023-02-17T16:45:47.653Z,100305.28
2023-02-17T16:48:28.191Z,100313.09
2023-02-17T16:51:12.255Z,100308.03
2023-02-17T16:53:53.896Z,100340.44
2023-02-17T16:56:41.539Z,100337.16
2023-02-17T16:59:21.377Z,100327.06
2023-02-17T17:01:51.197Z,100325.47
2023-02-17T17:04:18.268Z,100320.44
2023-02-17T17:06:52.098Z,100332.41
2023-02-17T17:09:28.704Z,100337.56
2023-02-17T17:11:56.109Z,100341.91
2023-02-17T17:17:21.786Z,100358.16
2023-02-17T17:20:00.129Z,100350.53
2023-02-17T17:22:36.444Z,100361.63
2023-02-17T17:28:39.198Z,100353.25
2023-02-17T18:25:31.888Z,100391.25
2023-02-17T18:28:36.006Z,100409.06
2023-02-17T20:29:38.162Z,100497.50
2023-02-17T20:33:33.188Z,100511.09
2023-02-17T20:36:26.314Z,100517.03
2023-02-17T21:01:45.116Z,100517.91
2023-02-17T21:18:23.804Z,100521.28
2023-02-17T21:22:45.678Z,100540.81
2023-02-17T21:25:10.452Z,100524.69
2023-02-17T21:27:37.742Z,100522.16
2023-02-17T21:30:13.327Z,100513.63
2023-02-17T21:32:41.417Z,100524.69
2023-02-17T21:35:11.814Z,100526.38
2023-02-17T21:37:43.182Z,100523.00
2023-02-17T21:40:11.338Z,100513.66
2023-02-17T21:42:57.860Z,100514.47
2023-02-17T21:45:25.717Z,100506.84
2023-02-17T21:47:52.735Z,100511.94
2023-02-17T21:50:21.255Z,100504.28
2023-02-17T21:52:48.184Z,100505.97
2023-02-17T21:55:14.956Z,100510.25
2023-02-17T21:57:41.711Z,100505.13
2023-02-17T22:00:09.140Z,100513.63
2023-02-17T22:02:36.607Z,100515.31
2023-02-17T22:05:04.080Z,100521.25
2023-02-17T22:07:31.086Z,100525.50
2023-02-17T22:09:59.859Z,100527.19
2023-02-17T22:12:27.329Z,100522.13
2023-02-17T22:14:54.043Z,100517.00
2023-02-17T22:17:20.811Z,100521.28
2023-02-17T22:19:47.586Z,100510.22
2023-02-17T22:22:14.341Z,100501.75
2023-02-17T22:24:41.079Z,100512.78
2023-02-17T22:27:07.885Z,100512.78
2023-02-17T22:29:34.625Z,100506.84
2023-02-17T22:32:01.500Z,100500.88
2023-02-17T22:34:37.232Z,100498.34
2023-02-17T22:37:07.196Z,100514.50
2023-02-17T22:39:35.643Z,100499.22
2023-02-17T22:42:11.496Z,100495.81
2023-02-17T22:44:38.589Z,100490.72
2023-02-17T22:47:05.827Z,100494.97
2023-02-17T22:49:33.073Z,100500.06
2023-02-17T22:52:02.864Z,100505.16
2023-02-17T22:55:08.493Z,100496.66
2023-02-17T23:01:43.870Z,100483.91
2023-02-17T23:04:36.947Z,100485.63
2023-02-17T23:15:55.200Z,100491.56
2023-02-17T23:22:22.638Z,100499.22
2023-02-17T23:25:04.055Z,100485.63
